Sainte-Henedine, Canada
Current Conditions -  °F | °C
As of 5:00 AM on Sunday 26 Oct 2014 (Local Time) from CYQB Reporting Station
Overcast Overcast  
Wind Chill: 39°   Ceiling: 1600
Heat Index: 43°   Visibility: 15mi
Dew Point: 39°   Wind: 6mph
Humidity: 87%   Direction: 80°E
Pressure: 29.35"   Gusts: NA
Location:  46.57°N, 70.98°W
Report Text: CYQB 260900Z 08005KT 030V090 15SM FEW009 OVC016 06/04 A2935 RMK SF2SC6 SLP942
Loading
Personal Weather Stations






























Interactive Weather Map
Tropical Storm Tracking
New forecast layout! Learn more

10-Day Weather Forecast

Advertisements
Track Severe Weather on mobile